createdAt,value
2023-04-27T00:01:13.199Z,49.24
2023-04-27T00:06:15.124Z,49.04
2023-04-27T00:11:17.192Z,49.11
2023-04-27T00:16:19.301Z,49.23
2023-04-27T00:21:21.640Z,49.05
2023-04-27T00:26:23.969Z,49.53
2023-04-27T00:31:28.301Z,49.28
2023-04-27T00:36:35.137Z,49.28
2023-04-27T00:41:39.723Z,49.30
2023-04-27T00:46:41.655Z,49.34
2023-04-27T00:51:43.532Z,49.51
2023-04-27T00:56:48.330Z,49.45
2023-04-27T01:01:50.849Z,49.45
2023-04-27T01:06:54.753Z,49.46
2023-04-27T01:11:59.246Z,49.54
2023-04-27T01:17:02.752Z,49.64
2023-04-27T01:22:04.783Z,49.82
2023-04-27T01:27:06.797Z,49.78
2023-04-27T01:32:08.716Z,49.91
2023-04-27T01:37:11.125Z,49.83
2023-04-27T01:42:12.980Z,49.86
2023-04-27T01:47:18.243Z,50.19
2023-04-27T01:52:20.478Z,50.00
2023-04-27T01:57:22.530Z,50.21
2023-04-27T02:02:24.708Z,50.22
2023-04-27T02:07:27.439Z,50.13
2023-04-27T02:12:31.310Z,50.14
2023-04-27T02:17:35.153Z,50.38
2023-04-27T02:22:37.775Z,50.11
2023-04-27T02:27:41.633Z,50.42
2023-04-27T02:32:44.305Z,50.27
2023-04-27T02:37:46.706Z,50.30
2023-04-27T02:42:51.153Z,50.28
2023-04-27T02:47:53.298Z,50.36
2023-04-27T02:52:55.617Z,50.45
2023-04-27T02:57:57.808Z,50.35
2023-04-27T03:02:59.906Z,50.41
2023-04-27T03:08:01.975Z,50.40
2023-04-27T03:13:04.169Z,50.27
2023-04-27T03:18:06.651Z,50.41
2023-04-27T03:23:09.329Z,50.29
2023-04-27T03:28:11.430Z,50.53
2023-04-27T03:33:14.575Z,50.54
2023-04-27T03:38:16.610Z,50.68
2023-04-27T03:43:20.334Z,50.57
2023-04-27T03:48:22.676Z,50.43
2023-04-27T03:53:27.266Z,50.64
2023-04-27T03:58:29.633Z,50.76
2023-04-27T04:03:48.497Z,50.53
2023-04-27T04:08:50.695Z,50.74
2023-04-27T04:13:53.203Z,50.81
2023-04-27T04:18:55.269Z,50.82
2023-04-27T04:23:57.800Z,50.74
2023-04-27T04:29:00.140Z,50.84
2023-04-27T04:34:02.482Z,50.56
2023-04-27T04:39:05.488Z,50.67
2023-04-27T04:44:08.134Z,50.72
2023-04-27T04:49:10.142Z,50.66
2023-04-27T04:54:12.905Z,50.67
2023-04-27T04:59:14.937Z,50.75
2023-04-27T05:04:18.877Z,50.83
2023-04-27T05:09:21.112Z,50.69
2023-04-27T05:14:22.957Z,50.56
2023-04-27T05:19:25.519Z,50.56
2023-04-27T05:24:27.778Z,50.67
2023-04-27T05:29:30.050Z,50.68
2023-04-27T05:34:31.892Z,50.40
2023-04-27T05:39:33.847Z,50.50
2023-04-27T05:44:35.918Z,50.51
2023-04-27T05:49:37.865Z,50.44
2023-04-27T05:54:39.798Z,50.52
2023-04-27T05:59:42.939Z,50.51
2023-04-27T06:04:44.782Z,50.37
2023-04-27T06:09:46.668Z,50.17
2023-04-27T06:14:48.770Z,50.22
2023-04-27T06:19:51.992Z,50.28
2023-04-27T06:24:54.303Z,50.42
2023-04-27T06:29:56.324Z,50.50
2023-04-27T06:34:58.413Z,50.50
2023-04-27T06:40:00.519Z,50.54
2023-04-27T06:45:07.389Z,50.62
2023-04-27T06:50:09.879Z,50.45
2023-04-27T06:55:11.995Z,50.28
2023-04-27T07:00:14.678Z,49.92
2023-04-27T07:05:16.691Z,49.95
2023-04-27T07:10:18.779Z,49.89
2023-04-27T07:15:24.129Z,49.72
2023-04-27T07:20:27.155Z,49.70
2023-04-27T07:25:29.140Z,49.71
2023-04-27T07:30:31.260Z,49.56
2023-04-27T07:35:33.776Z,49.33
2023-04-27T07:40:36.526Z,49.07
2023-04-27T07:45:40.133Z,48.61
2023-04-27T07:50:42.353Z,48.68
2023-04-27T07:55:44.765Z,48.54
2023-04-27T08:00:47.533Z,48.24
2023-04-27T08:05:49.728Z,48.06
2023-04-27T08:10:52.008Z,47.56
2023-04-27T08:15:58.560Z,47.45
2023-04-27T08:21:00.487Z,47.38
2023-04-27T08:26:03.621Z,47.38
2023-04-27T08:31:05.802Z,47.30
2023-04-27T08:36:08.010Z,47.15
2023-04-27T08:41:20.934Z,46.56
2023-04-27T08:46:27.309Z,46.50
2023-04-27T08:51:29.949Z,46.50
2023-04-27T08:56:32.083Z,46.52
2023-04-27T09:01:34.252Z,46.59
2023-04-27T09:06:36.432Z,45.89
2023-04-27T09:11:39.814Z,44.98
2023-04-27T09:16:43.171Z,44.89
2023-04-27T09:21:48.348Z,45.03
2023-04-27T09:26:50.556Z,44.46
2023-04-27T09:31:52.736Z,44.00
2023-04-27T09:36:54.753Z,43.25
2023-04-27T09:41:57.116Z,43.30
2023-04-27T09:47:00.979Z,42.96
2023-04-27T09:52:02.987Z,42.89
2023-04-27T09:57:36.313Z,42.64
2023-04-27T10:03:02.665Z,42.94
2023-04-27T10:08:06.438Z,43.15
2023-04-27T10:13:08.309Z,42.87
2023-04-27T10:18:11.709Z,42.95
2023-04-27T10:23:26.246Z,43.15
2023-04-27T10:28:39.332Z,42.97
2023-04-27T10:33:44.508Z,42.67
2023-04-27T10:38:46.975Z,42.61
2023-04-27T10:43:49.128Z,41.92
2023-04-27T10:48:51.772Z,41.55
2023-04-27T10:53:54.023Z,41.66
2023-04-27T10:58:56.355Z,41.35
2023-04-27T11:04:00.174Z,41.52
2023-04-27T11:09:02.266Z,41.54
2023-04-27T11:14:04.296Z,41.57
2023-04-27T11:19:07.058Z,41.59
2023-04-27T11:24:10.986Z,41.33
2023-04-27T11:29:14.431Z,41.62
2023-04-27T11:34:22.739Z,41.53
2023-04-27T11:39:28.207Z,41.64
2023-04-27T11:44:30.207Z,41.89
2023-04-27T11:49:32.221Z,41.77
2023-04-27T11:54:34.082Z,41.09
2023-04-27T11:59:36.246Z,40.09
2023-04-27T12:04:38.501Z,40.21
2023-04-27T12:09:40.894Z,40.49
2023-04-27T12:14:42.797Z,40.44
2023-04-27T12:19:44.854Z,40.81
2023-04-27T12:24:46.803Z,40.89
2023-04-27T12:29:48.826Z,40.92
2023-04-27T12:34:50.982Z,41.04
2023-04-27T12:39:52.899Z,41.04
2023-04-27T12:44:54.934Z,41.25
2023-04-27T12:49:56.895Z,41.16
2023-04-27T12:54:59.489Z,41.11
2023-04-27T13:00:02.076Z,40.81
2023-04-27T13:05:04.882Z,40.96
2023-04-27T13:10:11.534Z,40.96
2023-04-27T13:15:13.484Z,41.06
2023-04-27T13:20:15.680Z,40.79
2023-04-27T13:25:17.801Z,40.89
2023-04-27T13:30:19.952Z,40.70
2023-04-27T13:35:22.036Z,40.87
2023-04-27T13:40:24.064Z,40.86
2023-04-27T13:45:26.185Z,40.67
2023-04-27T13:50:28.358Z,40.53
2023-04-27T13:55:30.824Z,40.71
2023-04-27T14:00:34.756Z,40.48
2023-04-27T14:05:36.918Z,40.33
2023-04-27T14:10:39.306Z,40.25
2023-04-27T14:15:42.238Z,40.23
2023-04-27T14:20:44.834Z,40.50
2023-04-27T14:25:47.155Z,40.13
2023-04-27T14:30:49.115Z,40.39
2023-04-27T14:35:51.364Z,40.53
2023-04-27T14:40:53.339Z,40.33
2023-04-27T14:46:02.068Z,40.28
2023-04-27T14:51:15.359Z,40.37
2023-04-27T14:56:17.900Z,40.36
2023-04-27T15:01:20.373Z,40.46
2023-04-27T15:06:22.492Z,40.60
2023-04-27T15:11:24.403Z,40.57
2023-04-27T15:16:26.476Z,40.47
2023-04-27T15:21:28.495Z,40.70
2023-04-27T15:26:30.614Z,40.90
2023-04-27T15:31:32.580Z,40.99
2023-04-27T15:36:34.616Z,41.03
2023-04-27T15:41:36.769Z,40.72
2023-04-27T15:46:38.750Z,40.73
2023-04-27T15:51:41.023Z,40.61
2023-04-27T15:56:43.184Z,40.75
2023-04-27T16:01:45.157Z,40.75
2023-04-27T16:06:47.082Z,40.95
2023-04-27T16:11:49.083Z,40.83
2023-04-27T16:16:51.605Z,40.76
2023-04-27T16:21:54.001Z,40.81
2023-04-27T16:26:56.135Z,40.88
2023-04-27T16:31:58.217Z,41.07
2023-04-27T16:37:00.365Z,41.03
2023-04-27T16:42:02.718Z,40.89
2023-04-27T16:47:04.605Z,40.63
2023-04-27T16:52:06.470Z,40.85
2023-04-27T16:57:08.469Z,40.90
2023-04-27T17:02:23.865Z,41.20
2023-04-27T17:07:32.866Z,41.39
2023-04-27T17:12:38.520Z,41.43
2023-04-27T17:17:41.461Z,41.35
2023-04-27T17:22:43.546Z,41.53
2023-04-27T17:27:45.716Z,41.66
2023-04-27T17:32:47.698Z,41.57
2023-04-27T17:37:49.705Z,41.74
2023-04-27T17:42:51.693Z,41.59
2023-04-27T17:47:53.623Z,41.64
2023-04-27T17:52:55.823Z,41.75
2023-04-27T17:58:00.820Z,41.77
2023-04-27T18:03:03.074Z,41.99
2023-04-27T18:08:05.405Z,42.06
2023-04-27T18:13:07.373Z,42.15
2023-04-27T18:18:10.543Z,42.58
2023-04-27T18:23:12.492Z,43.09
2023-04-27T18:28:14.469Z,43.35
2023-04-27T18:33:18.021Z,43.46
2023-04-27T18:38:19.872Z,43.70
2023-04-27T18:43:21.766Z,43.87
2023-04-27T18:48:23.788Z,43.76
2023-04-27T18:53:26.964Z,43.78
2023-04-27T18:58:29.110Z,43.58
2023-04-27T19:03:31.209Z,43.65
2023-04-27T19:08:33.225Z,43.60
2023-04-27T19:13:35.110Z,44.07
2023-04-27T19:18:37.083Z,44.13
2023-04-27T19:23:39.078Z,44.69
2023-04-27T19:28:41.385Z,44.84
2023-04-27T19:38:48.217Z,44.99
2023-04-27T19:43:50.086Z,45.20
2023-04-27T19:48:53.354Z,45.25
2023-04-27T19:53:55.325Z,45.55
2023-04-27T19:58:57.294Z,45.55
2023-04-27T20:03:59.435Z,45.68
2023-04-27T20:09:02.237Z,45.81
2023-04-27T20:14:04.586Z,46.11
2023-04-27T20:19:06.613Z,46.18
2023-04-27T20:24:08.566Z,46.22
2023-04-27T20:29:10.621Z,46.42
2023-04-27T20:34:12.837Z,46.52
2023-04-27T20:39:15.264Z,46.62
2023-04-27T20:44:18.498Z,46.53
2023-04-27T20:49:31.941Z,46.65
2023-04-27T20:54:37.184Z,46.87
2023-04-27T20:59:39.422Z,46.96
2023-04-27T21:04:41.459Z,47.02
2023-04-27T21:09:43.354Z,46.88
2023-04-27T21:14:45.458Z,47.29
2023-04-27T21:19:47.383Z,47.33
2023-04-27T21:24:50.359Z,47.46
2023-04-27T21:29:52.488Z,47.70
2023-04-27T21:34:54.518Z,47.49
2023-04-27T21:39:56.696Z,47.83
2023-04-27T21:44:58.754Z,47.87
2023-04-27T21:50:00.609Z,48.05
2023-04-27T21:55:03.171Z,47.92
2023-04-27T22:00:14.015Z,48.12
2023-04-27T22:05:22.240Z,48.17
2023-04-27T22:10:24.206Z,48.34
2023-04-27T22:15:26.477Z,48.44
2023-04-27T22:20:28.389Z,48.40
2023-04-27T22:25:30.688Z,48.50
2023-04-27T22:30:32.671Z,48.38
2023-04-27T22:35:36.503Z,48.59
2023-04-27T22:40:38.436Z,48.61
2023-04-27T22:45:40.535Z,48.53
2023-04-27T22:50:42.459Z,48.56
2023-04-27T22:55:44.376Z,48.60
2023-04-27T23:00:46.453Z,48.88
2023-04-27T23:05:48.470Z,48.96
2023-04-27T23:10:55.096Z,48.93
2023-04-27T23:15:57.264Z,48.90
2023-04-27T23:20:59.170Z,49.11
2023-04-27T23:26:01.026Z,49.09
2023-04-27T23:31:04.159Z,49.16
2023-04-27T23:36:06.753Z,49.12
2023-04-27T23:41:08.784Z,49.32
2023-04-27T23:46:11.029Z,49.41
2023-04-27T23:51:13.069Z,49.45
2023-04-27T23:56:19.300Z,49.63
